createdAt,value
2018-01-05T00:01:03.593Z,70.20
2018-01-05T00:03:31.609Z,70.60
2018-01-05T00:06:00.384Z,70.90
2018-01-05T00:08:28.372Z,70.90
2018-01-05T00:10:56.448Z,69.40
2018-01-05T00:13:24.449Z,68.60
2018-01-05T00:15:53.208Z,69.00
2018-01-05T00:18:21.202Z,69.00
2018-01-05T00:20:49.212Z,67.90
2018-01-05T00:23:17.969Z,68.80
2018-01-05T00:25:45.987Z,68.70
2018-01-05T00:28:13.971Z,68.20
2018-01-05T00:30:41.956Z,68.10
2018-01-05T00:33:09.947Z,68.00
2018-01-05T00:35:38.714Z,68.30
2018-01-05T00:38:06.712Z,68.20
2018-01-05T00:40:34.713Z,68.60
2018-01-05T00:43:03.484Z,67.80
2018-01-05T00:45:31.471Z,67.80
2018-01-05T00:47:59.481Z,67.50
2018-01-05T00:50:28.244Z,69.00
2018-01-05T00:52:56.233Z,68.30
2018-01-05T00:55:24.220Z,69.10
2018-01-05T00:57:52.224Z,69.60
2018-01-05T01:00:20.981Z,71.40
2018-01-05T01:02:48.984Z,71.20
2018-01-05T01:05:16.977Z,71.20
2018-01-05T01:07:44.968Z,71.80
2018-01-05T01:10:13.033Z,71.70
2018-01-05T01:12:41.084Z,71.30
2018-01-05T01:15:09.127Z,71.80
2018-01-05T01:17:37.177Z,71.20
2018-01-05T01:20:05.204Z,71.70
2018-01-05T01:22:33.249Z,69.80
2018-01-05T01:25:01.290Z,70.10
2018-01-05T01:27:29.341Z,69.00
2018-01-05T01:29:57.372Z,68.90
2018-01-05T01:32:25.421Z,68.10
2018-01-05T01:34:54.220Z,68.60
2018-01-05T01:37:23.050Z,67.30
2018-01-05T01:39:51.069Z,67.30
2018-01-05T01:42:19.117Z,67.60
2018-01-05T01:44:47.156Z,67.60
2018-01-05T01:47:15.196Z,67.20
2018-01-05T01:49:43.250Z,67.90
2018-01-05T01:52:12.061Z,67.50
2018-01-05T01:54:40.120Z,67.40
2018-01-05T01:57:08.936Z,68.30
2018-01-05T01:59:37.761Z,68.60
2018-01-05T02:02:05.800Z,68.70
2018-01-05T02:04:33.852Z,69.60
2018-01-05T02:07:01.912Z,69.70
2018-01-05T02:09:29.954Z,72.60
2018-01-05T02:11:58.777Z,72.00
2018-01-05T02:14:26.812Z,71.30
2018-01-05T02:16:54.874Z,72.50
2018-01-05T02:19:22.889Z,72.50
2018-01-05T02:21:50.941Z,71.90
2018-01-05T02:24:18.991Z,72.80
2018-01-05T02:26:47.801Z,73.30
2018-01-05T02:29:15.853Z,73.30
2018-01-05T02:31:43.905Z,73.60
2018-01-05T02:34:11.963Z,73.40
2018-01-05T02:36:39.998Z,73.50
2018-01-05T02:39:08.054Z,72.60
2018-01-05T02:41:36.100Z,73.10
2018-01-05T02:44:04.142Z,72.80
2018-01-05T02:46:32.205Z,72.80
2018-01-05T02:49:00.250Z,72.60
2018-01-05T02:51:29.071Z,71.50
2018-01-05T02:53:57.108Z,71.40
2018-01-05T02:56:25.155Z,71.50
2018-01-05T02:58:53.185Z,71.50
2018-01-05T03:01:22.005Z,71.40
2018-01-05T03:03:50.061Z,72.00
2018-01-05T03:06:18.089Z,71.40
2018-01-05T03:08:46.147Z,70.40
2018-01-05T03:11:14.945Z,69.50
2018-01-05T03:13:43.760Z,69.50
2018-01-05T03:16:11.816Z,69.40
2018-01-05T03:18:39.864Z,68.90
2018-01-05T03:21:07.928Z,69.00
2018-01-05T03:23:35.964Z,68.20
2018-01-05T03:26:04.012Z,67.50
2018-01-05T03:28:32.813Z,65.80
2018-01-05T03:31:00.875Z,65.60
2018-01-05T03:33:28.918Z,66.20
2018-01-05T03:35:56.968Z,66.20
2018-01-05T03:38:25.012Z,66.10
2018-01-05T03:40:53.045Z,65.80
2018-01-05T03:43:21.113Z,65.70
2018-01-05T03:45:49.150Z,65.40
2018-01-05T03:48:17.966Z,65.30
2018-01-05T03:50:45.992Z,65.40
2018-01-05T03:53:15.680Z,66.40
2018-01-05T03:55:43.741Z,66.20
2018-01-05T03:58:12.533Z,67.00
2018-01-05T04:00:40.590Z,67.00
2018-01-05T04:03:08.634Z,66.70
2018-01-05T04:05:36.720Z,67.70
2018-01-05T04:08:04.761Z,68.10
2018-01-05T04:10:32.808Z,67.80
2018-01-05T04:13:00.865Z,66.50
2018-01-05T04:15:28.897Z,66.90
2018-01-05T04:17:56.957Z,66.50
2018-01-05T04:20:24.997Z,66.10
2018-01-05T04:22:53.817Z,66.90
2018-01-05T04:25:21.852Z,66.80
2018-01-05T04:27:49.899Z,66.60
2018-01-05T04:30:17.958Z,66.20
2018-01-05T04:32:46.757Z,66.30
2018-01-05T04:35:15.568Z,66.90
2018-01-05T04:37:43.604Z,66.90
2018-01-05T04:40:11.661Z,67.20
2018-01-05T04:42:39.700Z,67.30
2018-01-05T04:45:07.750Z,68.00
2018-01-05T04:47:35.800Z,67.80
2018-01-05T04:50:03.828Z,68.10
2018-01-05T04:52:31.889Z,67.80
2018-01-05T04:54:59.904Z,67.70
2018-01-05T04:57:27.968Z,68.30
2018-01-05T04:59:56.001Z,68.20
2018-01-05T05:02:24.873Z,69.80
2018-01-05T05:04:52.928Z,69.80
2018-01-05T05:07:20.945Z,70.60
2018-01-05T05:09:49.001Z,70.30
2018-01-05T05:12:17.033Z,69.90
2018-01-05T05:14:45.844Z,70.80
2018-01-05T05:17:13.885Z,70.80
2018-01-05T05:19:41.953Z,70.00
2018-01-05T05:22:10.009Z,70.80
2018-01-05T05:24:38.041Z,70.80
2018-01-05T05:27:06.093Z,70.80
2018-01-05T05:29:34.133Z,70.80
2018-01-05T05:32:02.952Z,71.90
2018-01-05T05:34:30.988Z,71.70
2018-01-05T05:36:59.042Z,72.30
2018-01-05T05:39:27.093Z,72.00
2018-01-05T05:41:55.133Z,71.80
2018-01-05T05:44:23.185Z,71.50
2018-01-05T05:46:51.215Z,70.90
2018-01-05T05:49:19.281Z,70.90
2018-01-05T05:51:47.310Z,72.00
2018-01-05T05:54:15.361Z,71.60
2018-01-05T05:56:43.385Z,70.90
2018-01-05T05:59:11.708Z,71.30
2018-01-05T06:01:39.746Z,70.90
2018-01-05T06:04:08.553Z,70.90
2018-01-05T06:06:37.377Z,71.10
2018-01-05T06:09:05.408Z,70.90
2018-01-05T06:11:34.241Z,71.70
2018-01-05T06:14:03.034Z,72.10
2018-01-05T06:16:31.856Z,72.10
2018-01-05T06:18:59.880Z,72.10
2018-01-05T06:21:27.941Z,72.60
2018-01-05T06:23:55.963Z,71.50
2018-01-05T06:26:24.019Z,72.30
2018-01-05T06:28:52.822Z,72.90
2018-01-05T06:31:20.864Z,72.70
2018-01-05T06:33:48.921Z,73.00
2018-01-05T06:36:16.952Z,73.00
2018-01-05T06:38:45.002Z,72.80
2018-01-05T06:41:13.794Z,74.20
2018-01-05T06:43:42.617Z,74.90
2018-01-05T06:46:10.750Z,74.50
2018-01-05T06:48:38.788Z,74.80
2018-01-05T06:51:06.845Z,75.30
2018-01-05T06:53:34.880Z,75.60
2018-01-05T06:56:02.942Z,75.30
2018-01-05T06:58:31.924Z,75.60
2018-01-05T07:00:59.964Z,75.60
2018-01-05T07:03:28.005Z,75.70
2018-01-05T07:05:56.820Z,74.70
2018-01-05T07:08:24.872Z,74.70
2018-01-05T07:10:52.902Z,74.20
2018-01-05T07:13:20.985Z,74.80
2018-01-05T07:15:49.027Z,74.60
2018-01-05T07:18:17.076Z,74.60
2018-01-05T07:20:45.097Z,74.30
2018-01-05T07:23:13.954Z,74.20
2018-01-05T07:25:42.281Z,74.10
2018-01-05T07:28:10.327Z,73.50
2018-01-05T07:30:38.379Z,74.00
2018-01-05T07:33:07.193Z,74.10
2018-01-05T07:35:35.256Z,74.10
2018-01-05T07:38:04.085Z,74.00
2018-01-05T07:40:32.138Z,74.00
2018-01-05T07:43:00.944Z,73.10
2018-01-05T07:45:28.992Z,73.00
2018-01-05T07:47:57.041Z,73.80
2018-01-05T07:50:25.077Z,73.60
2018-01-05T07:52:53.901Z,73.60
2018-01-05T07:55:21.928Z,73.40
2018-01-05T07:57:49.981Z,73.30
2018-01-05T08:00:18.012Z,73.50
2018-01-05T08:02:46.070Z,72.90
2018-01-05T08:05:14.225Z,73.20
2018-01-05T08:07:42.261Z,72.80
2018-01-05T08:10:10.363Z,73.10
2018-01-05T08:12:38.380Z,72.60
2018-01-05T08:15:06.442Z,72.60
2018-01-05T08:17:35.236Z,72.10
2018-01-05T08:20:04.067Z,71.30
2018-01-05T08:22:32.108Z,71.80
2018-01-05T08:25:00.213Z,71.90
2018-01-05T08:27:29.000Z,71.70
2018-01-05T08:29:57.045Z,71.60
2018-01-05T08:32:25.101Z,71.60
2018-01-05T08:34:53.126Z,71.20
2018-01-05T08:37:21.177Z,71.90
2018-01-05T08:39:49.209Z,71.20
2018-01-05T08:42:17.264Z,71.20
2018-01-05T08:44:45.305Z,71.20
2018-01-05T08:47:14.130Z,71.30
2018-01-05T08:49:42.185Z,71.90
2018-01-05T08:52:10.207Z,72.10
2018-01-05T08:54:38.272Z,73.00
2018-01-05T08:57:06.309Z,71.30
2018-01-05T08:59:34.377Z,71.20
2018-01-05T09:02:02.416Z,71.30
2018-01-05T09:04:30.461Z,71.20
2018-01-05T09:06:58.521Z,71.30
2018-01-05T09:09:26.552Z,71.30
2018-01-05T09:11:55.365Z,71.10
2018-01-05T09:14:24.173Z,71.40
2018-01-05T09:16:52.217Z,71.30
2018-01-05T09:19:20.268Z,70.40
2018-01-05T09:21:48.313Z,70.70
2018-01-05T09:24:16.360Z,71.40
2018-01-05T09:26:44.395Z,71.60
2018-01-05T09:29:13.205Z,71.50
2018-01-05T09:31:41.241Z,71.40
2018-01-05T09:34:09.290Z,71.50
2018-01-05T09:36:37.330Z,71.60
2018-01-05T09:39:06.140Z,71.60
2018-01-05T09:41:34.963Z,71.70
2018-01-05T09:44:02.993Z,71.50
2018-01-05T09:46:31.044Z,71.60
2018-01-05T09:48:59.069Z,71.60
2018-01-05T09:51:27.120Z,71.60
2018-01-05T09:53:55.189Z,70.20
2018-01-05T09:56:23.248Z,71.60
2018-01-05T09:58:52.052Z,71.70
2018-01-05T10:01:20.089Z,71.70
2018-01-05T10:03:48.137Z,70.70
2018-01-05T10:06:16.165Z,70.70
2018-01-05T10:08:44.224Z,71.80
2018-01-05T10:11:12.256Z,70.70
2018-01-05T10:13:41.073Z,71.90
2018-01-05T10:16:09.981Z,71.90
2018-01-05T10:18:38.013Z,71.80
2018-01-05T10:21:06.073Z,71.30
2018-01-05T10:23:34.101Z,71.20
2018-01-05T10:26:02.928Z,71.00
2018-01-05T10:28:30.967Z,70.20
2018-01-05T10:30:59.021Z,70.70
2018-01-05T10:33:27.060Z,70.00
2018-01-05T10:35:55.879Z,69.70
2018-01-05T10:38:24.694Z,69.60
2018-01-05T10:40:52.725Z,69.60
2018-01-05T10:43:20.785Z,69.70
2018-01-05T10:45:48.836Z,69.00
2018-01-05T10:48:16.889Z,68.30
2018-01-05T10:50:44.920Z,70.50
2018-01-05T10:53:12.961Z,69.30
2018-01-05T10:55:41.777Z,69.60
2018-01-05T10:58:10.598Z,68.30
2018-01-05T11:00:38.658Z,68.30
2018-01-05T11:03:06.721Z,69.10
2018-01-05T11:05:34.753Z,69.10
2018-01-05T11:08:02.797Z,69.50
2018-01-05T11:10:31.620Z,69.20
2018-01-05T11:13:00.435Z,70.50
2018-01-05T11:15:28.472Z,70.40
2018-01-05T11:17:56.553Z,69.10
2018-01-05T11:20:24.610Z,68.80
2018-01-05T11:22:52.645Z,68.50
2018-01-05T11:25:21.460Z,68.90
2018-01-05T11:27:49.501Z,68.90
2018-01-05T11:30:17.705Z,69.00
2018-01-05T11:32:45.742Z,69.10
2018-01-05T11:35:13.795Z,68.30
2018-01-05T11:37:42.614Z,68.90
2018-01-05T11:40:10.644Z,68.80
2018-01-05T11:42:38.693Z,67.70
2018-01-05T11:45:06.953Z,68.90
2018-01-05T11:47:35.751Z,68.30
2018-01-05T11:50:04.556Z,68.90
2018-01-05T11:52:33.381Z,69.90
2018-01-05T11:55:01.434Z,69.90
2018-01-05T11:57:30.261Z,70.30
2018-01-05T11:59:58.312Z,71.00
2018-01-05T12:02:27.142Z,72.50
2018-01-05T12:04:55.173Z,72.40
2018-01-05T12:07:23.220Z,71.30
2018-01-05T12:09:51.261Z,72.90
2018-01-05T12:12:19.321Z,72.80
2018-01-05T12:14:47.368Z,73.90
2018-01-05T12:17:15.404Z,74.10
2018-01-05T12:19:43.442Z,74.60
2018-01-05T12:22:11.481Z,73.60
2018-01-05T12:24:40.296Z,75.80
2018-01-05T12:27:08.333Z,75.70
2018-01-05T12:29:36.384Z,75.50
2018-01-05T12:32:04.445Z,75.60
2018-01-05T12:34:33.266Z,75.70
2018-01-05T12:37:01.325Z,75.70
2018-01-05T12:39:29.392Z,74.10
2018-01-05T12:41:57.451Z,74.00
2018-01-05T12:44:25.481Z,75.10
2018-01-05T12:46:54.309Z,76.00
2018-01-05T12:49:22.332Z,75.90
2018-01-05T12:51:50.399Z,75.40
2018-01-05T12:54:18.417Z,74.90
2018-01-05T12:56:46.472Z,75.20
2018-01-05T12:59:14.528Z,76.30
2018-01-05T13:01:42.571Z,74.10
2018-01-05T13:04:10.616Z,73.20
2018-01-05T13:06:38.649Z,73.10
2018-01-05T13:09:07.480Z,73.10
2018-01-05T13:11:35.514Z,73.00
2018-01-05T13:14:03.585Z,73.20
2018-01-05T13:16:31.610Z,73.30
2018-01-05T13:18:59.885Z,76.10
2018-01-05T13:21:27.957Z,75.10
2018-01-05T13:23:56.072Z,76.40
2018-01-05T13:26:25.158Z,77.00
2018-01-05T13:28:53.182Z,76.90
2018-01-05T13:31:21.505Z,77.80
2018-01-05T13:33:49.546Z,78.50
2018-01-05T13:36:17.605Z,79.30
2018-01-05T13:38:46.435Z,82.00
2018-01-05T13:41:14.453Z,81.90
2018-01-05T13:43:43.265Z,81.90
2018-01-05T13:46:11.290Z,81.90
2018-01-05T13:48:39.337Z,82.00
2018-01-05T13:51:07.371Z,83.30
2018-01-05T13:53:35.428Z,84.60
2018-01-05T13:56:04.236Z,85.00
2018-01-05T13:58:32.283Z,84.90
2018-01-05T14:01:00.305Z,85.90
2018-01-05T14:03:29.120Z,87.60
2018-01-05T14:05:57.176Z,87.50
2018-01-05T14:08:25.242Z,90.00
2018-01-05T14:10:53.325Z,88.30
2018-01-05T14:13:21.362Z,88.30
2018-01-05T14:15:49.449Z,88.20
2018-01-05T14:18:17.483Z,88.80
2018-01-05T14:20:45.536Z,89.50
2018-01-05T14:23:13.556Z,90.00
2018-01-05T14:25:41.593Z,90.30
2018-01-05T14:28:09.624Z,90.30
2018-01-05T14:30:37.668Z,90.30
2018-01-05T14:33:06.489Z,91.80
2018-01-05T14:35:34.525Z,91.70
2018-01-05T14:38:02.574Z,91.70
2018-01-05T14:40:30.601Z,91.70
2018-01-05T14:42:58.657Z,91.80
2018-01-05T14:45:27.453Z,91.30
2018-01-05T14:47:56.278Z,91.60
2018-01-05T14:50:24.325Z,91.60
2018-01-05T14:52:52.360Z,91.30
2018-01-05T14:55:20.416Z,91.30
2018-01-05T14:57:49.220Z,90.50
2018-01-05T15:00:18.045Z,90.60
2018-01-05T15:02:46.082Z,90.60
2018-01-05T15:05:14.127Z,90.30
2018-01-05T15:07:42.177Z,91.00
2018-01-05T15:10:10.215Z,91.10
2018-01-05T15:12:38.277Z,91.20
2018-01-05T15:15:06.333Z,91.10
2018-01-05T15:17:34.374Z,91.60
2018-01-05T15:20:02.400Z,91.80
2018-01-05T15:22:30.447Z,92.10
2018-01-05T15:24:58.508Z,92.20
2018-01-05T15:27:26.549Z,92.60
2018-01-05T15:29:54.601Z,92.40
2018-01-05T15:32:22.625Z,92.60
2018-01-05T15:34:50.665Z,92.70
2018-01-05T15:37:18.753Z,92.80
2018-01-05T15:39:46.804Z,92.90
2018-01-05T15:42:14.855Z,93.00
2018-01-05T15:44:42.882Z,93.20
2018-01-05T15:47:10.921Z,93.40
2018-01-05T15:49:38.968Z,93.50
2018-01-05T15:52:07.036Z,93.30
2018-01-05T15:54:35.080Z,93.40
2018-01-05T15:57:03.112Z,93.40
2018-01-05T15:59:31.154Z,93.30
2018-01-05T16:01:59.227Z,93.30
2018-01-05T16:04:27.308Z,93.50
2018-01-05T16:06:55.340Z,93.60
2018-01-05T16:09:23.384Z,93.50
2018-01-05T16:11:51.425Z,93.70
2018-01-05T16:14:19.483Z,93.80
2018-01-05T16:16:48.289Z,94.20
2018-01-05T16:19:16.321Z,93.90
2018-01-05T16:21:44.383Z,94.30
2018-01-05T16:24:12.412Z,94.00
2018-01-05T16:26:40.465Z,94.10
2018-01-05T16:29:09.260Z,94.40
2018-01-05T16:31:38.082Z,94.60
2018-01-05T16:34:06.128Z,94.60
2018-01-05T16:36:34.212Z,94.60
2018-01-05T16:39:02.272Z,94.70
2018-01-05T16:41:30.336Z,94.50
2018-01-05T16:43:58.389Z,94.20
2018-01-05T16:46:27.176Z,94.30
2018-01-05T16:48:55.988Z,94.60
2018-01-05T16:51:24.793Z,94.70
2018-01-05T16:53:53.605Z,94.90
2018-01-05T16:56:21.658Z,94.80
2018-01-05T16:58:49.685Z,94.90
2018-01-05T17:01:17.741Z,94.90
2018-01-05T17:03:46.533Z,94.90
2018-01-05T17:06:14.585Z,94.90
2018-01-05T17:08:42.617Z,95.00
2018-01-05T17:11:11.446Z,95.10
2018-01-05T17:13:39.470Z,95.00
2018-01-05T17:16:07.516Z,95.10
2018-01-05T17:18:35.562Z,95.00
2018-01-05T17:21:04.381Z,94.90
2018-01-05T17:23:32.446Z,94.90
2018-01-05T17:26:00.468Z,95.00
2018-01-05T17:28:28.520Z,95.00
2018-01-05T17:30:57.337Z,94.50
2018-01-05T17:33:25.376Z,94.60
2018-01-05T17:35:53.429Z,94.50
2018-01-05T17:38:21.457Z,94.70
2018-01-05T17:40:49.522Z,94.80
2018-01-05T17:43:17.563Z,94.80
2018-01-05T17:45:45.621Z,95.10
2018-01-05T17:48:14.420Z,94.70
2018-01-05T17:50:42.461Z,94.70
2018-01-05T17:53:10.497Z,94.70
2018-01-05T17:55:39.323Z,94.40
2018-01-05T17:58:07.380Z,94.40
2018-01-05T18:00:36.180Z,94.60
2018-01-05T18:03:05.002Z,94.70
2018-01-05T18:05:33.072Z,94.60
2018-01-05T18:08:01.203Z,94.70
2018-01-05T18:10:29.225Z,94.40
2018-01-05T18:12:58.069Z,94.20
2018-01-05T18:15:26.096Z,94.20
2018-01-05T18:17:54.149Z,94.20
2018-01-05T18:20:22.200Z,93.90
2018-01-05T18:22:50.240Z,93.90
2018-01-05T18:25:18.323Z,94.00
2018-01-05T18:27:46.352Z,94.10
2018-01-05T18:30:14.401Z,93.90
2018-01-05T18:32:42.435Z,94.00
2018-01-05T18:35:10.505Z,94.00
2018-01-05T18:37:38.725Z,93.90
2018-01-05T18:40:07.573Z,94.40
2018-01-05T18:42:36.416Z,94.60
2018-01-05T18:45:04.489Z,94.60
2018-01-05T18:47:32.536Z,94.50
2018-01-05T18:50:00.587Z,94.70
2018-01-05T18:52:28.648Z,94.60
2018-01-05T18:54:56.677Z,94.60
2018-01-05T18:57:24.750Z,94.80
2018-01-05T18:59:52.781Z,94.50
2018-01-05T19:02:21.305Z,94.40
2018-01-05T19:04:49.361Z,94.50
2018-01-05T19:07:18.144Z,95.10
2018-01-05T19:09:46.968Z,94.90
2018-01-05T19:12:14.988Z,94.90
2018-01-05T19:14:43.616Z,94.70
2018-01-05T19:17:11.795Z,94.30
2018-01-05T19:19:39.841Z,94.40
2018-01-05T19:22:07.866Z,94.40
2018-01-05T19:24:35.916Z,94.30
2018-01-05T19:27:03.968Z,94.30
2018-01-05T19:29:32.021Z,94.20
2018-01-05T19:32:00.065Z,94.80
2018-01-05T19:34:28.097Z,95.20
2018-01-05T19:36:56.910Z,94.90
2018-01-05T19:39:25.720Z,94.60
2018-01-05T19:41:53.750Z,94.60
2018-01-05T19:44:21.796Z,94.40
2018-01-05T19:46:49.831Z,94.60
2018-01-05T19:49:17.873Z,94.60
2018-01-05T19:51:45.900Z,94.60
2018-01-05T19:54:13.956Z,94.60
2018-01-05T19:56:42.014Z,94.50
2018-01-05T19:59:10.049Z,94.40
2018-01-05T20:01:38.118Z,94.50
2018-01-05T20:04:06.196Z,94.50
2018-01-05T20:06:34.253Z,94.40
2018-01-05T20:09:02.302Z,94.40
2018-01-05T20:11:31.141Z,94.30
2018-01-05T20:13:59.788Z,94.30
2018-01-05T20:16:29.481Z,94.00
2018-01-05T20:18:57.520Z,94.00
2018-01-05T20:21:26.443Z,94.10
2018-01-05T20:23:55.609Z,94.10
2018-01-05T20:26:25.702Z,94.10
2018-01-05T20:28:55.980Z,94.20
2018-01-05T20:31:26.646Z,94.30
2018-01-05T20:33:58.217Z,94.60
2018-01-05T20:36:27.334Z,94.40
2018-01-05T20:38:56.561Z,94.40
2018-01-05T20:41:25.036Z,94.40
2018-01-05T20:43:54.024Z,94.20
2018-01-05T20:46:22.879Z,94.30
2018-01-05T20:48:50.916Z,94.60
2018-01-05T20:51:19.730Z,94.60
2018-01-05T20:53:47.756Z,94.60
2018-01-05T20:56:15.794Z,94.60
2018-01-05T20:58:43.829Z,94.60
2018-01-05T21:01:12.101Z,94.50
2018-01-05T21:03:40.241Z,94.80
2018-01-05T21:06:09.037Z,94.80
2018-01-05T21:08:37.849Z,94.90
2018-01-05T21:11:06.649Z,96.20
2018-01-05T21:13:35.465Z,95.80
2018-01-05T21:16:03.497Z,95.70
2018-01-05T21:18:31.569Z,95.20
2018-01-05T21:20:59.630Z,94.70
2018-01-05T21:23:27.673Z,94.50
2018-01-05T21:25:55.724Z,94.50
2018-01-05T21:28:23.750Z,94.60
2018-01-05T21:30:52.587Z,94.70
2018-01-05T21:33:20.617Z,94.70
2018-01-05T21:35:48.671Z,94.70
2018-01-05T21:38:19.060Z,94.90
2018-01-05T21:40:48.313Z,94.90
2018-01-05T21:43:17.312Z,94.90
2018-01-05T21:45:48.597Z,94.80
2018-01-05T21:48:18.060Z,95.70
2018-01-05T21:50:46.239Z,95.70
2018-01-05T21:53:17.641Z,95.10
2018-01-05T21:55:45.690Z,95.10
2018-01-05T21:58:14.382Z,94.90
2018-01-05T22:00:42.573Z,94.70
2018-01-05T22:03:11.634Z,94.70
2018-01-05T22:05:41.546Z,94.80
2018-01-05T22:08:09.622Z,95.00
2018-01-05T22:10:37.684Z,94.70
2018-01-05T22:13:05.738Z,94.60
2018-01-05T22:15:33.788Z,94.60
2018-01-05T22:18:01.820Z,94.70
2018-01-05T22:20:30.645Z,94.60
2018-01-05T22:22:58.732Z,94.60
2018-01-05T22:25:26.748Z,94.80
2018-01-05T22:27:57.199Z,94.90
2018-01-05T22:30:25.901Z,95.00
2018-01-05T22:32:55.874Z,94.90
2018-01-05T22:35:25.771Z,95.10
2018-01-05T22:38:00.778Z,95.20
2018-01-05T22:40:29.001Z,95.00
2018-01-05T22:42:57.056Z,94.90
2018-01-05T22:45:25.092Z,95.10
2018-01-05T22:47:53.914Z,95.10
2018-01-05T22:50:22.679Z,95.10
2018-01-05T22:52:50.737Z,95.20
2018-01-05T22:55:19.588Z,95.40
2018-01-05T22:57:48.416Z,95.30
2018-01-05T23:00:16.475Z,95.30
2018-01-05T23:02:45.277Z,95.20
2018-01-05T23:05:25.776Z,94.40
2018-01-05T23:08:01.497Z,94.80
2018-01-05T23:10:29.832Z,95.10
2018-01-05T23:12:58.308Z,95.40
2018-01-05T23:15:26.381Z,94.90
2018-01-05T23:17:55.209Z,95.00
2018-01-05T23:20:23.245Z,95.00
2018-01-05T23:22:51.338Z,94.80
2018-01-05T23:25:20.168Z,95.80
2018-01-05T23:27:51.437Z,95.80
2018-01-05T23:30:19.480Z,95.40
2018-01-05T23:32:47.557Z,94.90
2018-01-05T23:35:18.744Z,94.80
2018-01-05T23:37:46.815Z,94.70
2018-01-05T23:40:15.628Z,94.70
2018-01-05T23:42:44.421Z,94.60
2018-01-05T23:45:13.244Z,94.70
2018-01-05T23:47:41.317Z,94.70
2018-01-05T23:50:09.390Z,94.70
2018-01-05T23:52:38.199Z,94.70
2018-01-05T23:55:07.035Z,94.50
2018-01-05T23:57:35.064Z,94.50
